Time;durP1;ratioP1;P1;durP2;ratioP2;P2;SDS_P1;SDS_P2;PMS_P1;PMS_P2;Temp;Humidity;BMP_temperature;BMP_pressure;BME280_temperature;BME280_humidity;BME280_pressure;Samples;Min_cycle;Max_cycle;Signal;HPM_P1;HPM_P2
2021/04/26 00:00:35;;;;;;;3.17;1.13;;;18.20;47.00;;;;;;6244878;23;19996;-76
2021/04/26 00:03:01;;;;;;;4.13;1.42;;;18.20;47.00;;;;;;6244753;23;20019;-75
2021/04/26 00:05:27;;;;;;;3.22;0.80;;;18.20;47.00;;;;;;6243498;23;19997;-76
2021/04/26 00:07:54;;;;;;;2.92;1.08;;;18.20;47.00;;;;;;6244684;23;20004;-76
2021/04/26 00:10:21;;;;;;;2.67;0.90;;;18.10;46.90;;;;;;6244388;23;20054;-76
2021/04/26 00:12:46;;;;;;;3.08;0.85;;;18.10;46.80;;;;;;6244687;23;20495;-76
2021/04/26 00:15:38;;;;;;;2.55;1.20;;;18.10;46.80;;;;;;6244876;23;20038;-77
2021/04/26 00:18:04;;;;;;;2.17;0.98;;;18.00;47.40;;;;;;6241562;23;20372;-76
2021/04/26 00:20:30;;;;;;;5.15;1.10;;;18.00;46.80;;;;;;6244852;23;20045;-76
2021/04/26 00:23:00;;;;;;;2.72;0.98;;;18.00;46.80;;;;;;6244776;23;20091;-76
2021/04/26 00:25:26;;;;;;;3.65;1.17;;;18.00;46.70;;;;;;6244478;23;20007;-76
2021/04/26 00:27:52;;;;;;;4.18;1.27;;;17.90;46.70;;;;;;6242393;23;20070;-76
2021/04/26 00:30:21;;;;;;;3.20;1.13;;;17.90;46.70;;;;;;6244615;23;20316;-76
2021/04/26 00:32:47;;;;;;;4.63;1.35;;;17.90;46.80;;;;;;6244328;23;20050;-76
2021/04/26 00:35:13;;;;;;;3.38;1.17;;;17.90;46.80;;;;;;6244317;23;20001;-76
2021/04/26 00:37:39;;;;;;;3.63;1.05;;;17.90;46.90;;;;;;6244445;23;20000;-76
2021/04/26 00:40:07;;;;;;;2.83;0.90;;;17.90;46.90;;;;;;6244617;23;20003;-76
2021/04/26 00:42:34;;;;;;;2.92;0.93;;;17.90;46.90;;;;;;6244180;23;20059;-76
2021/04/26 00:45:00;;;;;;;3.35;1.10;;;17.80;46.90;;;;;;6245026;23;20050;-76
2021/04/26 00:47:25;;;;;;;2.72;1.00;;;17.80;46.90;;;;;;6242715;23;20000;-76
2021/04/26 00:49:51;;;;;;;3.25;1.08;;;17.80;46.90;;;;;;6244131;23;20015;-77
2021/04/26 00:52:17;;;;;;;3.63;1.02;;;17.80;46.90;;;;;;6244482;23;19996;-76
2021/04/26 00:54:43;;;;;;;3.03;1.20;;;17.80;46.90;;;;;;6244328;23;20061;-75
2021/04/26 00:57:09;;;;;;;3.38;1.08;;;17.80;46.90;;;;;;6244073;23;20082;-76
2021/04/26 00:59:35;;;;;;;2.83;0.85;;;17.70;46.80;;;;;;6244247;23;20004;-76
2021/04/26 01:02:01;;;;;;;2.13;1.00;;;17.70;46.80;;;;;;6244534;23;20020;-76
2021/04/26 01:04:29;;;;;;;3.17;0.95;;;17.70;46.80;;;;;;6243817;23;20003;-75
2021/04/26 01:06:55;;;;;;;3.88;1.38;;;17.70;46.80;;;;;;6244151;23;20008;-75
2021/04/26 01:09:20;;;;;;;3.63;1.00;;;17.70;46.70;;;;;;6244241;23;20079;-75
2021/04/26 01:12:07;;;;;;;3.22;1.10;;;17.70;46.70;;;;;;6243916;22;20004;-76
2021/04/26 01:14:44;;;;;;;2.97;1.00;;;17.70;46.60;;;;;;6244528;23;20055;-76
2021/04/26 01:17:19;;;;;;;3.22;1.20;;;17.60;46.60;;;;;;6243961;23;20004;-75
2021/04/26 01:19:55;;;;;;;4.72;1.20;;;17.60;46.60;;;;;;6244299;23;20008;-75
2021/04/26 01:22:39;;;;;;;3.85;1.10;;;17.60;46.60;;;;;;6244032;23;20503;-75
2021/04/26 01:25:11;;;;;;;3.10;1.25;;;17.60;46.50;;;;;;6244067;23;20054;-75
2021/04/26 01:27:52;;;;;;;3.55;1.15;;;17.60;46.60;;;;;;6242184;23;20016;-75
2021/04/26 01:30:47;;;;;;;3.58;1.02;;;17.60;46.70;;;;;;6244072;23;19996;-75
2021/04/26 01:33:21;;;;;;;3.10;1.00;;;17.50;46.60;;;;;;6244050;23;20007;-75
2021/04/26 01:35:47;;;;;;;4.10;1.13;;;17.50;46.70;;;;;;6243879;23;20050;-75
2021/04/26 01:38:18;;;;;;;3.13;1.23;;;17.50;46.70;;;;;;6244117;23;20379;-75
2021/04/26 01:40:48;;;;;;;4.60;1.20;;;17.50;46.70;;;;;;6242502;23;20004;-76
2021/04/26 01:43:17;;;;;;;3.08;0.90;;;17.50;46.80;;;;;;6243766;23;20062;-76
2021/04/26 01:45:45;;;;;;;3.85;1.08;;;17.50;46.80;;;;;;6243935;23;20007;-75
2021/04/26 01:48:11;;;;;;;3.35;1.60;;;17.40;46.80;;;;;;6243903;23;20004;-76
2021/04/26 01:50:37;;;;;;;3.80;1.20;;;17.40;46.80;;;;;;6244191;23;20006;-75
2021/04/26 01:53:04;;;;;;;3.22;0.95;;;17.40;46.80;;;;;;6244541;23;20000;-75
2021/04/26 01:55:29;;;;;;;2.40;0.98;;;17.40;46.80;;;;;;6244074;23;20008;-76
2021/04/26 01:57:57;;;;;;;4.22;1.10;;;17.40;46.80;;;;;;6244091;23;20440;-76
2021/04/26 02:00:34;;;;;;;3.30;1.00;;;17.40;46.80;;;;;;6242105;23;20011;-76
2021/04/26 02:03:01;;;;;;;7.13;1.33;;;17.40;46.90;;;;;;6243881;23;20019;-76
2021/04/26 02:05:29;;;;;;;3.25;1.10;;;17.40;46.90;;;;;;6244011;23;20004;-76
2021/04/26 02:07:55;;;;;;;2.92;1.10;;;17.30;46.80;;;;;;6243945;23;20003;-76
2021/04/26 02:10:24;;;;;;;3.03;0.93;;;17.30;46.80;;;;;;6243955;23;20050;-75
2021/04/26 02:12:51;;;;;;;3.03;1.08;;;17.30;46.80;;;;;;6242102;23;20082;-76
2021/04/26 02:15:19;;;;;;;5.10;1.42;;;17.30;46.80;;;;;;6243812;23;20490;-76
2021/04/26 02:17:46;;;;;;;3.15;0.90;;;17.30;46.80;;;;;;6244017;22;20004;-76
2021/04/26 02:20:15;;;;;;;3.53;1.00;;;17.30;46.90;;;;;;6244710;23;20122;-76
2021/04/26 02:22:41;;;;;;;3.03;1.00;;;17.30;46.90;;;;;;6243764;23;20016;-75
2021/04/26 02:25:10;;;;;;;2.35;1.08;;;17.30;46.90;;;;;;6246254;23;20433;-75
2021/04/26 02:27:36;;;;;;;1.45;0.70;;;17.30;47.00;;;;;;6245566;23;20066;-76
2021/04/26 02:30:03;;;;;;;3.45;1.10;;;17.30;47.00;;;;;;6245662;23;20318;-76
2021/04/26 02:32:46;;;;;;;2.75;1.00;;;17.20;47.00;;;;;;6244096;23;20333;-75
2021/04/26 02:35:16;;;;;;;3.17;1.00;;;17.20;47.00;;;;;;6244047;23;20390;-76
2021/04/26 02:37:49;;;;;;;2.88;0.98;;;17.20;47.00;;;;;;6245914;23;20011;-75
2021/04/26 02:40:16;;;;;;;3.33;1.10;;;17.20;47.10;;;;;;6245652;23;20518;-75
2021/04/26 02:42:45;;;;;;;2.78;1.08;;;17.20;47.10;;;;;;6244004;23;20015;-75
2021/04/26 02:45:14;;;;;;;4.18;1.00;;;17.20;47.10;;;;;;6245682;23;20000;-76
2021/04/26 02:47:41;;;;;;;3.88;1.27;;;17.20;47.10;;;;;;6245652;23;20001;-75
2021/04/26 02:50:09;;;;;;;1.95;1.10;;;17.10;47.10;;;;;;6245736;23;20369;-75
2021/04/26 02:52:35;;;;;;;3.03;1.00;;;17.20;47.20;;;;;;6245604;23;20011;-75
2021/04/26 02:55:02;;;;;;;3.40;0.82;;;17.10;47.10;;;;;;6245333;23;20004;-75
2021/04/26 02:57:33;;;;;;;2.95;1.00;;;17.10;47.10;;;;;;6245626;23;20008;-75
2021/04/26 03:00:00;;;;;;;3.22;1.25;;;17.10;47.10;;;;;;6245550;23;19996;-75
2021/04/26 03:02:27;;;;;;;4.35;1.30;;;17.10;47.20;;;;;;6245323;23;20031;-76
2021/04/26 03:04:54;;;;;;;3.00;1.10;;;17.10;47.10;;;;;;6245469;23;20000;-75
2021/04/26 03:07:21;;;;;;;2.17;0.93;;;17.10;47.10;;;;;;6245306;23;20007;-75
2021/04/26 03:09:48;;;;;;;3.47;1.00;;;17.10;47.10;;;;;;6245508;23;20000;-75
2021/04/26 03:12:14;;;;;;;3.72;1.10;;;17.10;47.10;;;;;;6245288;23;19996;-75
2021/04/26 03:14:41;;;;;;;2.85;1.10;;;17.00;47.10;;;;;;6245561;23;20081;-74
2021/04/26 03:17:07;;;;;;;2.67;0.88;;;17.10;47.20;;;;;;6245641;23;19997;-76
2021/04/26 03:19:34;;;;;;;2.85;0.95;;;17.10;47.20;;;;;;6245079;23;20012;-74
2021/04/26 03:22:02;;;;;;;2.47;1.10;;;17.10;47.20;;;;;;6243395;23;20004;-75
2021/04/26 03:24:28;;;;;;;3.13;0.82;;;17.10;47.10;;;;;;6243620;23;20008;-76
2021/04/26 03:26:57;;;;;;;2.60;0.95;;;17.00;47.10;;;;;;6245381;23;20012;-75
2021/04/26 03:29:23;;;;;;;4.35;1.10;;;17.00;47.10;;;;;;6245053;23;20559;-75
2021/04/26 03:31:50;;;;;;;2.25;0.90;;;17.00;47.10;;;;;;6244569;23;20059;-75
2021/04/26 03:34:17;;;;;;;3.88;0.98;;;17.00;47.10;;;;;;6244951;23;20008;-76
2021/04/26 03:36:43;;;;;;;3.65;1.00;;;17.00;47.20;;;;;;6244919;23;20000;-74
2021/04/26 03:39:12;;;;;;;3.80;1.20;;;17.00;47.20;;;;;;6245475;23;20004;-76
2021/04/26 03:41:38;;;;;;;2.78;0.93;;;16.90;47.20;;;;;;6245386;23;20053;-75
2021/04/26 03:44:05;;;;;;;1.50;0.80;;;16.90;47.20;;;;;;6244896;23;20008;-75
2021/04/26 03:46:31;;;;;;;5.53;0.85;;;16.90;47.20;;;;;;6244579;23;19997;-75
2021/04/26 03:48:58;;;;;;;3.78;1.13;;;16.90;47.20;;;;;;6243021;23;20004;-75
2021/04/26 03:51:23;;;;;;;3.15;0.77;;;16.90;47.20;;;;;;6244959;23;20004;-75
2021/04/26 03:53:49;;;;;;;2.53;1.05;;;16.90;47.20;;;;;;6244949;23;20004;-75
2021/04/26 03:56:15;;;;;;;2.38;0.88;;;16.90;47.20;;;;;;6244921;23;20007;-76
2021/04/26 03:58:40;;;;;;;4.68;1.20;;;16.90;47.20;;;;;;6245286;23;20003;-75
2021/04/26 04:01:06;;;;;;;3.08;1.30;;;16.90;47.20;;;;;;6244751;23;20011;-75
2021/04/26 04:03:31;;;;;;;3.05;1.00;;;16.90;47.10;;;;;;6244448;23;20008;-75
2021/04/26 04:05:57;;;;;;;3.25;0.95;;;16.90;47.20;;;;;;6244901;23;19996;-75
2021/04/26 04:08:29;;;;;;;3.72;1.25;;;16.90;47.20;;;;;;6244761;23;20453;-74
2021/04/26 04:10:55;;;;;;;1.67;0.70;;;16.90;47.20;;;;;;6244676;23;20000;-75
2021/04/26 04:13:20;;;;;;;2.78;0.70;;;16.80;47.20;;;;;;6244613;23;20001;-76
2021/04/26 04:15:46;;;;;;;3.03;0.85;;;16.90;47.20;;;;;;6244289;23;20054;-75
2021/04/26 04:18:11;;;;;;;2.45;0.90;;;16.90;47.20;;;;;;6244871;23;20053;-76
2021/04/26 04:20:37;;;;;;;4.38;0.95;;;16.80;47.10;;;;;;6244733;23;19996;-76
2021/04/26 04:23:03;;;;;;;3.00;1.00;;;16.80;47.20;;;;;;6244554;23;20027;-75
2021/04/26 04:25:28;;;;;;;2.75;1.05;;;16.80;47.20;;;;;;6244451;23;20000;-76
2021/04/26 04:27:54;;;;;;;2.72;0.90;;;16.80;47.20;;;;;;6244656;23;20148;-75
2021/04/26 04:30:20;;;;;;;3.65;1.20;;;16.80;47.20;;;;;;6244317;23;20516;-76
2021/04/26 04:32:45;;;;;;;2.88;0.85;;;16.80;47.20;;;;;;6244441;23;20364;-75
2021/04/26 04:35:11;;;;;;;3.83;1.20;;;16.80;47.20;;;;;;6245116;23;20000;-76
2021/04/26 04:37:37;;;;;;;2.58;1.02;;;16.80;47.20;;;;;;6242769;23;20005;-75
2021/04/26 04:40:05;;;;;;;4.22;1.10;;;16.70;47.10;;;;;;6244467;23;20008;-75
2021/04/26 04:42:30;;;;;;;3.00;1.02;;;16.70;47.10;;;;;;6242640;23;20008;-76
2021/04/26 04:44:56;;;;;;;3.45;0.90;;;16.70;47.20;;;;;;6243896;23;20000;-76
2021/04/26 04:47:22;;;;;;;2.08;0.93;;;16.70;47.20;;;;;;6244074;23;20038;-75
2021/04/26 04:49:48;;;;;;;3.45;0.80;;;16.70;47.20;;;;;;6244575;23;20434;-76
2021/04/26 04:52:13;;;;;;;2.97;1.00;;;16.70;47.20;;;;;;6244733;23;20000;-76
2021/04/26 04:54:39;;;;;;;4.28;0.98;;;16.70;47.20;;;;;;6244413;23;20000;-75
2021/04/26 04:57:05;;;;;;;1.83;0.88;;;16.70;47.20;;;;;;6244095;23;20011;-75
2021/04/26 04:59:30;;;;;;;3.13;0.90;;;16.70;47.10;;;;;;6244200;23;20062;-75
2021/04/26 05:01:56;;;;;;;2.10;0.80;;;16.60;47.10;;;;;;6243602;23;20028;-75
2021/04/26 05:04:22;;;;;;;2.30;0.75;;;16.70;47.20;;;;;;6244339;23;20065;-75
2021/04/26 05:06:47;;;;;;;2.60;0.80;;;16.70;47.20;;;;;;6242602;23;20440;-75
2021/04/26 05:09:13;;;;;;;1.75;0.77;;;16.70;47.20;;;;;;6244495;23;20085;-75
2021/04/26 05:11:38;;;;;;;3.92;1.05;;;16.60;47.10;;;;;;6244160;23;20050;-74
2021/04/26 05:14:04;;;;;;;4.43;0.98;;;16.60;47.20;;;;;;6244058;23;20021;-75
2021/04/26 05:16:31;;;;;;;4.00;0.90;;;16.60;47.20;;;;;;6243793;23;20023;-75
2021/04/26 05:18:58;;;;;;;3.70;0.85;;;16.60;47.20;;;;;;6244279;23;20000;-76
2021/04/26 05:21:27;;;;;;;1.63;0.73;;;16.60;47.20;;;;;;6244206;23;20339;-76
2021/04/26 05:23:55;;;;;;;7.07;1.33;;;16.60;47.20;;;;;;6244041;23;20012;-76
2021/04/26 05:26:21;;;;;;;3.72;1.25;;;16.60;47.20;;;;;;6242495;23;20016;-76
2021/04/26 05:28:46;;;;;;;4.38;1.52;;;16.60;47.20;;;;;;6244214;23;20336;-76
2021/04/26 05:31:12;;;;;;;2.42;1.00;;;16.60;47.20;;;;;;6242555;23;20000;-76
2021/04/26 05:33:38;;;;;;;4.45;0.95;;;16.50;47.10;;;;;;6244175;23;20000;-75
2021/04/26 05:36:04;;;;;;;3.00;0.80;;;16.50;47.10;;;;;;6244210;23;20082;-75
2021/04/26 05:38:29;;;;;;;2.45;1.00;;;16.50;47.10;;;;;;6244065;23;20008;-75
2021/04/26 05:40:55;;;;;;;1.60;0.80;;;16.60;47.20;;;;;;6243724;23;20004;-75
2021/04/26 05:43:21;;;;;;;2.80;0.95;;;16.50;47.10;;;;;;6243803;23;20019;-76
2021/04/26 05:45:46;;;;;;;2.47;0.90;;;16.50;47.10;;;;;;6243934;23;20063;-75
2021/04/26 05:48:12;;;;;;;3.17;1.08;;;16.50;47.10;;;;;;6244013;23;20000;-75
2021/04/26 05:50:38;;;;;;;3.42;0.90;;;16.50;47.10;;;;;;6244042;23;20001;-77
2021/04/26 05:53:04;;;;;;;4.03;0.98;;;16.50;47.10;;;;;;6243932;23;20008;-75
2021/04/26 05:55:31;;;;;;;2.78;0.82;;;16.50;47.10;;;;;;6244986;23;20020;-76
2021/04/26 05:57:57;;;;;;;1.95;0.90;;;16.50;47.20;;;;;;6245686;23;20011;-75
2021/04/26 06:00:23;;;;;;;3.90;1.05;;;16.50;47.20;;;;;;6245624;23;20020;-74
2021/04/26 06:02:48;;;;;;;3.60;1.10;;;16.50;47.20;;;;;;6246466;23;20012;-74
2021/04/26 06:05:14;;;;;;;5.20;0.98;;;16.40;47.20;;;;;;6245831;23;20459;-72
2021/04/26 06:07:41;;;;;;;3.50;1.10;;;16.50;47.50;;;;;;6245847;23;20014;-73
2021/04/26 06:10:07;;;;;;;3.10;1.23;;;16.50;47.50;;;;;;6245564;23;19996;-73
2021/04/26 06:12:34;;;;;;;3.72;1.02;;;16.50;47.40;;;;;;6245792;23;20004;-73
2021/04/26 06:15:00;;;;;;;6.85;1.40;;;16.60;47.40;;;;;;6245692;23;20000;-73
2021/04/26 06:17:25;;;;;;;3.58;1.08;;;16.60;47.40;;;;;;6245825;23;20008;-73
2021/04/26 06:19:51;;;;;;;5.95;1.20;;;16.70;47.30;;;;;;6246076;23;20000;-72
2021/04/26 06:22:17;;;;;;;2.53;1.10;;;16.80;47.40;;;;;;6244789;23;20075;-72
2021/04/26 06:24:42;;;;;;;2.97;1.10;;;16.80;47.90;;;;;;6244392;23;20008;-72
2021/04/26 06:27:08;;;;;;;3.53;1.10;;;16.90;47.30;;;;;;6242808;23;20016;-72
2021/04/26 06:29:34;;;;;;;2.70;1.00;;;16.90;47.40;;;;;;6244103;23;20007;-72
2021/04/26 06:31:59;;;;;;;15.25;2.13;;;17.00;47.30;;;;;;6242845;23;20011;-77
2021/04/26 06:34:25;;;;;;;13.70;2.42;;;17.10;48.00;;;;;;6244338;23;20455;-70
2021/04/26 06:36:52;;;;;;;3.22;1.00;;;17.20;48.90;;;;;;6244010;23;20011;-70
2021/04/26 06:39:17;;;;;;;5.22;1.00;;;17.30;47.70;;;;;;6244656;23;20006;-70
2021/04/26 06:41:43;;;;;;;5.00;1.35;;;17.30;47.40;;;;;;6244288;23;20028;-71
2021/04/26 06:44:08;;;;;;;3.15;0.98;;;17.40;47.30;;;;;;6245382;23;20011;-73
2021/04/26 06:46:34;;;;;;;5.00;1.00;;;;;;;;;;6245607;23;20004;-70
2021/04/26 06:49:01;;;;;;;3.90;1.00;;;17.70;47.60;;;;;;6244951;23;20008;-71
2021/04/26 06:51:27;;;;;;;2.60;0.95;;;17.70;47.90;;;;;;6244631;23;19997;-71
2021/04/26 06:53:53;;;;;;;6.38;1.75;;;17.80;47.50;;;;;;6245218;23;20062;-70
2021/04/26 06:56:18;;;;;;;4.40;1.25;;;17.90;47.60;;;;;;6245622;23;20004;-70
2021/04/26 06:58:44;;;;;;;5.05;1.42;;;17.90;47.40;;;;;;6245445;23;20000;-71
2021/04/26 07:01:10;;;;;;;5.50;1.50;;;18.00;47.30;;;;;;6244816;23;20011;-71
2021/04/26 07:03:36;;;;;;;4.18;1.05;;;18.00;47.30;;;;;;6244791;23;20008;-70
2021/04/26 07:06:02;;;;;;;5.20;1.40;;;18.10;47.40;;;;;;6243823;23;20115;-72
2021/04/26 07:08:27;;;;;;;3.90;1.10;;;18.20;47.20;;;;;;6243935;23;20429;-72
2021/04/26 07:10:54;;;;;;;6.95;1.40;;;18.20;47.20;;;;;;6244203;23;20004;-72
2021/04/26 07:13:19;;;;;;;5.88;1.10;;;18.20;47.10;;;;;;6244138;23;20054;-73
2021/04/26 07:15:45;;;;;;;4.53;1.00;;;18.30;47.10;;;;;;6243621;23;20000;-73
2021/04/26 07:18:11;;;;;;;3.97;1.45;;;18.30;47.10;;;;;;6243986;23;20004;-73
2021/04/26 07:20:36;;;;;;;6.72;1.17;;;18.30;47.10;;;;;;6244719;23;20134;-73
2021/04/26 07:23:03;;;;;;;5.05;1.10;;;18.40;47.20;;;;;;6243565;23;20015;-73
2021/04/26 07:25:29;;;;;;;6.25;1.13;;;18.40;47.80;;;;;;6244702;23;20005;-74
2021/04/26 07:27:55;;;;;;;3.35;1.05;;;18.40;47.40;;;;;;6243773;23;20012;-74
2021/04/26 07:30:21;;;;;;;7.28;1.30;;;18.40;47.20;;;;;;6243706;23;20087;-73
2021/04/26 07:32:47;;;;;;;4.95;1.25;;;18.40;47.40;;;;;;6244991;22;20007;-73
2021/04/26 07:35:13;;;;;;;3.80;1.00;;;18.40;47.50;;;;;;6245097;23;20004;-73
2021/04/26 07:37:40;;;;;;;5.28;1.23;;;18.40;47.50;;;;;;6244982;23;20000;-73
2021/04/26 07:40:08;;;;;;;3.85;1.20;;;18.40;47.40;;;;;;6245132;23;20058;-72
2021/04/26 07:42:34;;;;;;;8.50;1.45;;;18.40;47.40;;;;;;6244677;23;20040;-75
2021/04/26 07:45:00;;;;;;;5.03;1.00;;;18.40;47.30;;;;;;6245240;23;20008;-75
2021/04/26 07:47:26;;;;;;;4.45;1.10;;;18.50;47.30;;;;;;6244979;23;20380;-75
2021/04/26 07:49:51;;;;;;;5.63;1.17;;;18.40;47.20;;;;;;6245177;23;20007;-74
2021/04/26 07:52:17;;;;;;;3.38;1.02;;;18.40;47.80;;;;;;6244834;23;19996;-75
2021/04/26 07:54:43;;;;;;;4.88;0.93;;;18.40;47.10;;;;;;6244691;23;20004;-75
2021/04/26 07:57:08;;;;;;;8.75;1.40;;;18.40;47.10;;;;;;6244452;23;20007;-75
2021/04/26 07:59:35;;;;;;;3.80;1.08;;;18.40;47.10;;;;;;6244403;23;20089;-74
2021/04/26 08:02:00;;;;;;;3.50;1.10;;;18.40;47.00;;;;;;6244689;23;20008;-74
2021/04/26 08:04:26;;;;;;;3.63;1.00;;;18.40;47.10;;;;;;6244419;23;20008;-74
2021/04/26 08:06:52;;;;;;;3.35;1.25;;;18.40;47.10;;;;;;6244603;23;20103;-75
2021/04/26 08:09:17;;;;;;;5.90;1.05;;;18.30;47.00;;;;;;6244033;23;20000;-75
2021/04/26 08:11:43;;;;;;;4.03;0.70;;;18.30;47.00;;;;;;6242552;23;20004;-75
2021/04/26 08:14:09;;;;;;;3.22;1.25;;;18.30;47.10;;;;;;6244596;23;20004;-75
2021/04/26 08:16:34;;;;;;;5.15;1.13;;;18.30;47.10;;;;;;6244645;23;20386;-74
2021/04/26 08:19:00;;;;;;;2.05;0.88;;;18.30;47.00;;;;;;6244221;23;20004;-74
2021/04/26 08:21:25;;;;;;;2.70;0.90;;;18.30;47.50;;;;;;6244486;23;19996;-74
2021/04/26 08:23:53;;;;;;;4.15;1.17;;;18.30;46.90;;;;;;6244685;23;20008;-76
2021/04/26 08:26:19;;;;;;;4.97;1.20;;;18.30;46.90;;;;;;6244327;23;20012;-75
2021/04/26 08:28:45;;;;;;;7.85;1.00;;;18.30;46.90;;;;;;6244451;23;20465;-75
2021/04/26 08:31:10;;;;;;;3.58;0.90;;;18.30;46.80;;;;;;6244397;23;20000;-75
2021/04/26 08:33:39;;;;;;;4.78;1.10;;;18.30;46.70;;;;;;6242772;23;20015;-75
2021/04/26 08:36:05;;;;;;;5.72;1.08;;;18.30;46.70;;;;;;6244299;23;20005;-75
2021/04/26 08:38:30;;;;;;;4.50;1.00;;;18.30;46.70;;;;;;6244187;23;20004;-75
2021/04/26 08:40:56;;;;;;;6.22;1.05;;;18.30;46.70;;;;;;6243746;23;20031;-73
2021/04/26 08:43:22;;;;;;;2.85;1.05;;;18.30;46.70;;;;;;6244615;23;20040;-74
2021/04/26 08:45:48;;;;;;;3.60;1.02;;;18.20;46.60;;;;;;6244190;23;20106;-75
2021/04/26 08:48:14;;;;;;;2.80;0.93;;;18.20;46.60;;;;;;6244284;23;20032;-75
2021/04/26 08:50:39;;;;;;;5.88;1.00;;;18.20;46.70;;;;;;6242872;23;20424;-75
2021/04/26 08:53:06;;;;;;;5.53;0.90;;;18.20;46.60;;;;;;6244183;23;20014;-75
2021/04/26 08:55:32;;;;;;;4.30;0.93;;;18.20;46.70;;;;;;6242489;23;20004;-75
2021/04/26 08:57:57;;;;;;;4.07;1.20;;;18.20;46.60;;;;;;6244398;23;20058;-74
2021/04/26 09:00:23;;;;;;;2.33;0.90;;;18.20;46.70;;;;;;6244549;23;20050;-73
2021/04/26 09:02:59;;;;;;;3.00;0.93;;;18.20;46.70;;;;;;6244041;23;20051;-74
2021/04/26 09:05:29;;;;;;;2.25;0.90;;;18.20;46.70;;;;;;6244517;23;20058;-73
2021/04/26 09:07:58;;;;;;;3.38;1.15;;;18.20;46.80;;;;;;6244349;23;20031;-73
2021/04/26 09:10:47;;;;;;;3.78;0.88;;;18.20;46.70;;;;;;6244275;23;20118;-73
2021/04/26 09:13:39;;;;;;;3.10;0.90;;;18.20;46.80;;;;;;6243889;23;20424;-73
2021/04/26 09:16:22;;;;;;;2.17;1.02;;;18.10;46.70;;;;;;6242475;23;20057;-74
2021/04/26 09:18:55;;;;;;;3.50;1.13;;;18.10;46.70;;;;;;6244259;23;20148;-74
2021/04/26 09:21:25;;;;;;;2.83;0.98;;;18.10;46.70;;;;;;6243685;23;20455;-74
2021/04/26 09:24:17;;;;;;;3.35;1.20;;;18.10;46.80;;;;;;6243677;23;20043;-75
2021/04/26 09:26:46;;;;;;;3.03;0.90;;;18.10;46.80;;;;;;6243850;23;20004;-75
2021/04/26 09:29:24;;;;;;;2.80;1.10;;;18.10;46.80;;;;;;6244030;23;20000;-73
2021/04/26 09:32:11;;;;;;;5.97;1.35;;;18.10;46.80;;;;;;6243782;23;20425;-75
2021/04/26 09:34:56;;;;;;;2.35;0.82;;;18.10;46.80;;;;;;6243963;22;20000;-74
2021/04/26 09:37:27;;;;;;;2.72;0.95;;;18.10;46.80;;;;;;6243738;23;20000;-76
2021/04/26 09:40:00;;;;;;;2.53;0.90;;;18.10;46.80;;;;;;6243862;23;20004;-74
2021/04/26 09:42:49;;;;;;;2.67;0.98;;;18.10;46.80;;;;;;6243495;23;20348;-75
2021/04/26 09:45:15;;;;;;;3.58;1.05;;;18.10;46.80;;;;;;6243808;23;20004;-74
2021/04/26 09:47:41;;;;;;;2.85;0.88;;;18.10;46.80;;;;;;6243752;23;20075;-73
2021/04/26 09:50:07;;;;;;;4.18;1.38;;;18.10;46.80;;;;;;6244034;23;20028;-75
2021/04/26 09:52:33;;;;;;;3.88;1.02;;;18.10;46.80;;;;;;6243416;23;20000;-75
2021/04/26 09:54:58;;;;;;;3.70;1.17;;;18.10;46.80;;;;;;6244110;23;20006;-75
2021/04/26 09:57:24;;;;;;;2.08;1.00;;;18.10;46.80;;;;;;6243749;23;20071;-76
2021/04/26 09:59:51;;;;;;;3.05;0.77;;;18.10;46.70;;;;;;6243664;23;20385;-74
2021/04/26 10:02:17;;;;;;;1.35;0.80;;;18.20;47.00;;;;;;6242189;23;20400;-74
2021/04/26 10:04:43;;;;;;;1.73;0.90;;;18.20;46.90;;;;;;6243980;23;20004;-75
2021/04/26 10:07:11;;;;;;;2.33;0.80;;;18.20;46.80;;;;;;6243743;23;20044;-73
2021/04/26 10:09:40;;;;;;;6.95;1.08;;;18.20;47.30;;;;;;6243659;23;20000;-72
2021/04/26 10:12:09;;;;;;;5.85;1.10;;;18.20;47.20;;;;;;6243280;23;20525;-72
2021/04/26 10:14:40;;;;;;;6.72;1.63;;;18.20;48.00;;;;;;6242291;23;19996;-72
2021/04/26 10:17:13;;;;;;;7.30;1.60;;;18.20;48.50;;;;;;6242639;23;20062;-72
2021/04/26 10:19:50;;;;;;;8.13;2.38;;;18.30;48.00;;;;;;6242620;23;20023;-72
2021/04/26 10:22:31;;;;;;;5.40;1.25;;;18.30;48.20;;;;;;6242303;23;20395;-73
2021/04/26 10:24:59;;;;;;;5.78;1.27;;;18.40;49.30;;;;;;6243577;23;20008;-73
2021/04/26 10:27:37;;;;;;;3.72;1.17;;;18.40;49.70;;;;;;6243614;23;20019;-72
2021/04/26 10:30:03;;;;;;;3.50;1.05;;;18.50;49.60;;;;;;6243905;23;20055;-73
2021/04/26 10:32:29;;;;;;;4.03;1.30;;;18.60;49.80;;;;;;6243818;23;20007;-73
2021/04/26 10:34:55;;;;;;;9.15;1.42;;;18.60;49.80;;;;;;6241602;23;20395;-73
2021/04/26 10:37:25;;;;;;;4.63;1.40;;;18.70;49.80;;;;;;6243576;23;20607;-73
2021/04/26 10:39:57;;;;;;;4.47;1.80;;;18.80;49.60;;;;;;6242916;23;20024;-72
2021/04/26 10:42:41;;;;;;;4.85;1.65;;;18.90;49.50;;;;;;6243974;23;20008;-73
2021/04/26 10:45:12;;;;;;;7.20;1.13;;;18.90;49.30;;;;;;6245031;23;20000;-72
2021/04/26 10:47:40;;;;;;;2.70;1.30;;;19.00;49.00;;;;;;6245382;23;20000;-73
2021/04/26 10:50:06;;;;;;;6.45;1.75;;;19.00;49.20;;;;;;6243524;23;20028;-73
2021/04/26 10:52:34;;;;;;;3.80;1.48;;;19.10;48.40;;;;;;6245490;23;20000;-73
2021/04/26 10:55:09;;;;;;;5.05;1.33;;;19.20;48.20;;;;;;6245884;23;20046;-73
2021/04/26 10:57:49;;;;;;;6.30;1.65;;;19.20;47.90;;;;;;6245353;23;20079;-73
2021/04/26 11:00:26;;;;;;;1.95;1.13;;;19.30;47.80;;;;;;6245323;23;20007;-72
2021/04/26 11:02:54;;;;;;;2.72;1.58;;;19.40;47.70;;;;;;6243335;23;20083;-73
2021/04/26 11:05:24;;;;;;;4.90;1.25;;;19.50;47.50;;;;;;6245406;23;20070;-73
2021/04/26 11:07:54;;;;;;;5.72;1.35;;;19.60;47.40;;;;;;6245341;23;19996;-73
2021/04/26 11:10:43;;;;;;;4.63;1.20;;;19.70;47.50;;;;;;6245304;23;20073;-73
2021/04/26 11:13:35;;;;;;;3.20;1.17;;;19.80;47.10;;;;;;6243476;23;20071;-73
2021/04/26 11:16:11;;;;;;;4.82;1.17;;;19.90;47.00;;;;;;6239511;23;20005;-73
2021/04/26 11:18:57;;;;;;;5.25;1.63;;;19.90;46.90;;;;;;6245170;23;20024;-73
2021/04/26 11:21:42;;;;;;;3.50;1.05;;;20.00;46.90;;;;;;6234033;23;20364;-73
2021/04/26 11:24:10;;;;;;;3.83;1.30;;;20.00;46.80;;;;;;6243998;23;20018;-74
2021/04/26 11:26:36;;;;;;;3.17;1.00;;;20.10;46.80;;;;;;6243062;23;20432;-72
2021/04/26 11:29:03;;;;;;;3.42;1.13;;;20.20;46.80;;;;;;6245402;23;20007;-73
2021/04/26 11:31:44;;;;;;;4.20;1.00;;;20.20;46.70;;;;;;6245063;23;20057;-73
2021/04/26 11:34:20;;;;;;;4.38;1.35;;;20.20;46.70;;;;;;6245227;23;20043;-73
2021/04/26 11:37:00;;;;;;;;;;;20.30;46.70;;;;;;6244998;23;20032;-73
2021/04/26 11:39:31;;;;;;;5.07;1.00;;;20.30;46.70;;;;;;6244839;23;19899;-72
2021/04/26 11:41:58;;;;;;;2.22;0.90;;;20.30;46.60;;;;;;6244661;23;20329;-72
2021/04/26 11:44:31;;;;;;;5.93;1.20;;;20.30;46.60;;;;;;6245317;23;20009;-73
2021/04/26 11:47:10;;;;;;;3.17;1.00;;;20.40;46.70;;;;;;6244947;23;19996;-72
2021/04/26 11:49:50;;;;;;;3.20;0.98;;;20.40;47.30;;;;;;6245063;23;20067;-73
2021/04/26 11:52:21;;;;;;;4.38;1.45;;;20.40;46.70;;;;;;6244137;23;20058;-72
2021/04/26 11:55:08;;;;;;;3.28;0.88;;;20.50;46.70;;;;;;6244986;23;20008;-73
2021/04/26 11:57:45;;;;;;;3.75;1.02;;;20.50;46.70;;;;;;6244678;23;20000;-73
2021/04/26 12:00:37;;;;;;;6.00;1.27;;;20.50;46.70;;;;;;6244830;23;20008;-73
2021/04/26 12:03:09;;;;;;;3.88;1.10;;;20.50;46.70;;;;;;6241964;23;20012;-73
2021/04/26 12:05:35;;;;;;;3.78;1.10;;;20.50;46.70;;;;;;6244993;23;20011;-73
2021/04/26 12:08:01;;;;;;;2.10;0.90;;;20.50;46.60;;;;;;6244946;23;20000;-73
2021/04/26 12:10:30;;;;;;;3.20;1.15;;;20.60;46.60;;;;;;6243008;23;20079;-73
2021/04/26 12:13:01;;;;;;;2.53;1.00;;;20.60;46.60;;;;;;6244532;23;20008;-72
2021/04/26 12:15:27;;;;;;;2.75;1.08;;;20.60;46.50;;;;;;6242885;23;20346;-72
2021/04/26 12:17:57;;;;;;;1.52;0.80;;;20.60;46.40;;;;;;6244490;23;20035;-73
2021/04/26 12:20:38;;;;;;;2.28;0.95;;;20.70;46.40;;;;;;6242683;23;20429;-73
2021/04/26 12:23:05;;;;;;;1.92;0.80;;;20.70;46.20;;;;;;6244792;23;20074;-73
2021/04/26 12:25:36;;;;;;;1.58;0.77;;;20.80;46.20;;;;;;6244042;23;20057;-73
2021/04/26 12:28:07;;;;;;;2.28;0.63;;;20.70;46.00;;;;;;6244440;23;20000;-74
2021/04/26 12:30:44;;;;;;;1.75;0.90;;;20.80;46.00;;;;;;6244949;23;19996;-73
2021/04/26 12:33:25;;;;;;;2.70;0.90;;;20.80;46.00;;;;;;6244502;23;20019;-74
2021/04/26 12:35:53;;;;;;;2.55;0.90;;;20.80;46.00;;;;;;6242654;23;19996;-74
2021/04/26 12:38:26;;;;;;;3.53;1.23;;;20.70;46.10;;;;;;6244268;23;20028;-73
2021/04/26 12:40:52;;;;;;;2.65;1.15;;;20.70;46.70;;;;;;6244527;23;20341;-73
2021/04/26 12:43:17;;;;;;;2.83;0.88;;;20.70;46.10;;;;;;6244279;23;20035;-73
2021/04/26 12:45:46;;;;;;;1.98;0.90;;;20.80;46.10;;;;;;6242766;23;20435;-73
2021/04/26 12:48:17;;;;;;;3.47;0.90;;;20.70;46.10;;;;;;6244509;23;20027;-74
2021/04/26 12:50:45;;;;;;;2.05;0.90;;;20.80;46.40;;;;;;6243868;23;20000;-73
2021/04/26 12:53:27;;;;;;;3.53;0.98;;;20.80;46.20;;;;;;6244457;23;20008;-74
2021/04/26 12:56:02;;;;;;;3.00;0.90;;;20.80;46.10;;;;;;6244255;23;20106;-73